PLF044 EPWA-EPKK
Flight info
| Callsign | PLF044 |
|---|---|
| Flight time | N/A |
| Altitude | 22000 |
| Route | EVINA DCT KUKAM |
| Aircraft | YK40/M-SDFIRWY/H |
Departure
| Time | 2026-05-06 18:27 |
|---|---|
| Airport | Warsaw Chopin Airport (EPWA) |
Arrival
| Time | N/A |
|---|---|
| Airport | Kraków John Paul II International Airport (EPKK) |
| Time | Latitude | Longitude | Altitude | Speed | Heading |
|---|---|---|---|---|---|
| 2026-05-06 17:53 | 52.17670 | 20.97207 | 346 ft | 0 kts | 82° |
| 2026-05-06 18:06 | 52.17670 | 20.97204 | 346 ft | 1 kts | 84° |
| 2026-05-06 18:06 | 52.17668 | 20.97179 | 345 ft | 2 kts | 80° |
| 2026-05-06 18:07 | 52.17665 | 20.97155 | 345 ft | 2 kts | 80° |
| 2026-05-06 18:07 | 52.17663 | 20.97131 | 344 ft | 1 kts | 80° |
| 2026-05-06 18:07 | 52.17659 | 20.97119 | 344 ft | 1 kts | 35° |
| 2026-05-06 18:07 | 52.17650 | 20.97116 | 344 ft | 1 kts | 339° |
| 2026-05-06 18:08 | 52.17638 | 20.97128 | 344 ft | 2 kts | 327° |
| 2026-05-06 18:08 | 52.17633 | 20.97134 | 344 ft | 0 kts | 328° |
| 2026-05-06 18:08 | 52.17633 | 20.97133 | 344 ft | 0 kts | 328° |
| 2026-05-06 18:17 | 52.17636 | 20.97131 | 344 ft | 0 kts | 327° |
| 2026-05-06 18:17 | 52.17637 | 20.97129 | 344 ft | 0 kts | 327° |
| 2026-05-06 18:17 | 52.17639 | 20.97128 | 344 ft | 0 kts | 327° |
| 2026-05-06 18:18 | 52.17646 | 20.97120 | 344 ft | 2 kts | 327° |
| 2026-05-06 18:18 | 52.17680 | 20.97080 | 344 ft | 8 kts | 312° |
| 2026-05-06 18:18 | 52.17684 | 20.97071 | 344 ft | 0 kts | 303° |
| 2026-05-06 18:19 | 52.17690 | 20.97055 | 344 ft | 0 kts | 295° |
| 2026-05-06 18:19 | 52.17695 | 20.97033 | 343 ft | 4 kts | 283° |
| 2026-05-06 18:19 | 52.17636 | 20.96905 | 339 ft | 18 kts | 223° |
| 2026-05-06 18:20 | 52.17569 | 20.96746 | 337 ft | 16 kts | 240° |
| 2026-05-06 18:20 | 52.17533 | 20.96651 | 335 ft | 5 kts | 239° |
| 2026-05-06 18:20 | 52.17506 | 20.96574 | 333 ft | 12 kts | 225° |
| 2026-05-06 18:20 | 52.17446 | 20.96444 | 332 ft | 13 kts | 238° |
| 2026-05-06 18:21 | 52.17406 | 20.96392 | 333 ft | 4 kts | 194° |
| 2026-05-06 18:21 | 52.17331 | 20.96426 | 333 ft | 21 kts | 139° |
| 2026-05-06 18:21 | 52.17160 | 20.96598 | 332 ft | 33 kts | 153° |
| 2026-05-06 18:21 | 52.16967 | 20.96766 | 329 ft | 29 kts | 153° |
| 2026-05-06 18:22 | 52.16806 | 20.96910 | 330 ft | 23 kts | 152° |
| 2026-05-06 18:22 | 52.16683 | 20.97015 | 332 ft | 15 kts | 152° |
| 2026-05-06 18:22 | 52.16642 | 20.97051 | 333 ft | 1 kts | 152° |
| 2026-05-06 18:22 | 52.16637 | 20.97056 | 333 ft | 1 kts | 152° |
| 2026-05-06 18:23 | 52.16605 | 20.97083 | 333 ft | 10 kts | 152° |
| 2026-05-06 18:23 | 52.16511 | 20.97164 | 335 ft | 17 kts | 151° |
| 2026-05-06 18:23 | 52.16462 | 20.97181 | 335 ft | 3 kts | 194° |
| 2026-05-06 18:23 | 52.16469 | 20.97093 | 334 ft | 11 kts | 286° |
| 2026-05-06 18:24 | 52.16475 | 20.97069 | 333 ft | 0 kts | 295° |
| 2026-05-06 18:24 | 52.16476 | 20.97065 | 333 ft | 0 kts | 296° |
| 2026-05-06 18:24 | 52.16477 | 20.97061 | 333 ft | 0 kts | 296° |
| 2026-05-06 18:24 | 52.16478 | 20.97058 | 333 ft | 0 kts | 297° |
| 2026-05-06 18:26 | 52.16479 | 20.97057 | 333 ft | 0 kts | 297° |
| 2026-05-06 18:26 | 52.16536 | 20.96896 | 332 ft | 45 kts | 293° |
| 2026-05-06 18:26 | 52.16771 | 20.96023 | 349 ft | 119 kts | 294° |
| 2026-05-06 18:26 | 52.17171 | 20.94594 | 577 ft | 157 kts | 295° |
| 2026-05-06 18:27 | 52.17664 | 20.92879 | 1070 ft | 176 kts | 295° |
| 2026-05-06 18:27 | 52.18129 | 20.90956 | 1640 ft | 189 kts | 284° |
| 2026-05-06 18:27 | 52.18225 | 20.88725 | 2039 ft | 215 kts | 264° |
| 2026-05-06 18:27 | 52.17860 | 20.86266 | 2485 ft | 230 kts | 254° |
| 2026-05-06 18:28 | 52.17429 | 20.83754 | 2929 ft | 236 kts | 255° |
| 2026-05-06 18:28 | 52.17053 | 20.81132 | 3409 ft | 239 kts | 256° |
| 2026-05-06 18:28 | 52.16684 | 20.78460 | 3888 ft | 240 kts | 256° |
| 2026-05-06 18:28 | 52.16318 | 20.75815 | 4310 ft | 243 kts | 256° |
| 2026-05-06 18:29 | 52.15947 | 20.73108 | 4657 ft | 248 kts | 255° |
| 2026-05-06 18:29 | 52.15568 | 20.70392 | 5046 ft | 244 kts | 251° |
| 2026-05-06 18:29 | 52.14796 | 20.68004 | 5432 ft | 236 kts | 224° |
| 2026-05-06 18:29 | 52.13427 | 20.66653 | 5823 ft | 232 kts | 205° |
| 2026-05-06 18:30 | 52.11995 | 20.65475 | 6193 ft | 231 kts | 212° |
| 2026-05-06 18:30 | 52.10687 | 20.64000 | 6552 ft | 230 kts | 215° |
| 2026-05-06 18:30 | 52.09374 | 20.62521 | 6896 ft | 228 kts | 214° |
| 2026-05-06 18:30 | 52.08080 | 20.61084 | 7225 ft | 224 kts | 214° |
| 2026-05-06 18:31 | 52.06745 | 20.59828 | 7562 ft | 220 kts | 205° |
| 2026-05-06 18:31 | 52.05290 | 20.59037 | 7893 ft | 218 kts | 197° |
| 2026-05-06 18:31 | 52.03827 | 20.58413 | 8189 ft | 217 kts | 198° |
| 2026-05-06 18:31 | 52.02374 | 20.57775 | 8454 ft | 218 kts | 196° |
| 2026-05-06 18:32 | 52.00867 | 20.57326 | 8743 ft | 218 kts | 192° |
| 2026-05-06 18:32 | 51.99387 | 20.56981 | 9003 ft | 218 kts | 191° |
| 2026-05-06 18:32 | 51.97883 | 20.56599 | 9276 ft | 217 kts | 194° |
| 2026-05-06 18:32 | 51.96439 | 20.56035 | 9543 ft | 216 kts | 198° |
| 2026-05-06 18:33 | 51.95005 | 20.55383 | 9806 ft | 215 kts | 199° |
| 2026-05-06 18:33 | 51.93554 | 20.54700 | 10067 ft | 215 kts | 199° |
| 2026-05-06 18:33 | 51.92130 | 20.54049 | 10318 ft | 215 kts | 199° |
| 2026-05-06 18:33 | 51.90689 | 20.53401 | 10569 ft | 216 kts | 199° |
| 2026-05-06 18:34 | 51.89230 | 20.52752 | 10825 ft | 216 kts | 199° |
| 2026-05-06 18:34 | 51.87774 | 20.52110 | 11083 ft | 217 kts | 199° |
| 2026-05-06 18:34 | 51.86323 | 20.51476 | 11337 ft | 218 kts | 199° |
| 2026-05-06 18:34 | 51.84841 | 20.50834 | 11546 ft | 220 kts | 199° |
| 2026-05-06 18:35 | 51.83350 | 20.50191 | 11752 ft | 223 kts | 199° |
| 2026-05-06 18:35 | 51.81865 | 20.49554 | 11957 ft | 225 kts | 199° |
| 2026-05-06 18:35 | 51.80352 | 20.48909 | 12167 ft | 226 kts | 199° |
| 2026-05-06 18:35 | 51.78829 | 20.48263 | 12377 ft | 227 kts | 199° |
| 2026-05-06 18:36 | 51.77281 | 20.47610 | 12652 ft | 231 kts | 199° |
| 2026-05-06 18:36 | 51.75727 | 20.46957 | 13031 ft | 234 kts | 199° |
| 2026-05-06 18:36 | 51.74142 | 20.46294 | 13417 ft | 235 kts | 198° |
| 2026-05-06 18:36 | 51.72560 | 20.45625 | 13807 ft | 236 kts | 198° |
| 2026-05-06 18:37 | 51.70959 | 20.44933 | 14205 ft | 237 kts | 198° |
| 2026-05-06 18:37 | 51.69382 | 20.44244 | 14599 ft | 238 kts | 198° |
| 2026-05-06 18:37 | 51.67802 | 20.43552 | 14996 ft | 238 kts | 199° |
| 2026-05-06 18:37 | 51.66198 | 20.42849 | 15402 ft | 238 kts | 198° |
| 2026-05-06 18:38 | 51.64610 | 20.42153 | 15805 ft | 238 kts | 198° |
| 2026-05-06 18:38 | 51.63014 | 20.41455 | 16211 ft | 238 kts | 198° |
| 2026-05-06 18:38 | 51.61418 | 20.40755 | 16618 ft | 238 kts | 198° |
| 2026-05-06 18:38 | 51.59838 | 20.40063 | 16886 ft | 243 kts | 198° |
| 2026-05-06 18:39 | 51.58186 | 20.39333 | 17141 ft | 248 kts | 198° |
| 2026-05-06 18:39 | 51.56534 | 20.38604 | 17525 ft | 246 kts | 198° |
| 2026-05-06 18:39 | 51.54906 | 20.37886 | 17901 ft | 244 kts | 199° |
| 2026-05-06 18:40 | 51.51639 | 20.36445 | 18647 ft | 242 kts | 199° |
| 2026-05-06 18:40 | 51.50037 | 20.35745 | 19022 ft | 242 kts | 199° |
| 2026-05-06 18:40 | 51.48426 | 20.35048 | 19396 ft | 241 kts | 199° |
| 2026-05-06 18:40 | 51.46800 | 20.34357 | 19803 ft | 240 kts | 198° |
| 2026-05-06 18:41 | 51.45185 | 20.33685 | 20205 ft | 240 kts | 198° |
| 2026-05-06 18:41 | 51.43585 | 20.33031 | 20597 ft | 239 kts | 198° |
| 2026-05-06 18:41 | 51.41964 | 20.32379 | 20989 ft | 239 kts | 198° |
| 2026-05-06 18:41 | 51.40361 | 20.31747 | 21372 ft | 239 kts | 198° |
| 2026-05-06 18:42 | 51.38756 | 20.31123 | 21662 ft | 242 kts | 198° |
| 2026-05-06 18:42 | 51.37108 | 20.30489 | 21926 ft | 246 kts | 198° |
| 2026-05-06 18:42 | 51.35385 | 20.29825 | 21879 ft | 261 kts | 198° |
| 2026-05-06 18:42 | 51.33590 | 20.29124 | 21774 ft | 275 kts | 198° |
| 2026-05-06 18:43 | 51.31723 | 20.28385 | 21689 ft | 281 kts | 198° |
| 2026-05-06 18:43 | 51.29826 | 20.27518 | 21569 ft | 285 kts | 200° |
| 2026-05-06 18:43 | 51.27907 | 20.26603 | 21419 ft | 290 kts | 200° |
| 2026-05-06 18:43 | 51.25965 | 20.25690 | 21277 ft | 291 kts | 199° |
| 2026-05-06 18:44 | 51.24057 | 20.24802 | 21119 ft | 286 kts | 200° |
| 2026-05-06 18:44 | 51.22124 | 20.23918 | 20923 ft | 289 kts | 200° |
| 2026-05-06 18:44 | 51.20193 | 20.23053 | 20745 ft | 290 kts | 199° |
| 2026-05-06 18:44 | 51.18261 | 20.22194 | 20568 ft | 291 kts | 199° |
| 2026-05-06 18:45 | 51.16322 | 20.21336 | 20393 ft | 291 kts | 199° |
| 2026-05-06 18:45 | 51.14385 | 20.20479 | 20240 ft | 290 kts | 199° |
| 2026-05-06 18:45 | 51.12443 | 20.19619 | 20094 ft | 290 kts | 199° |
| 2026-05-06 18:45 | 51.10510 | 20.18761 | 19948 ft | 289 kts | 199° |
| 2026-05-06 18:46 | 51.08561 | 20.17895 | 19799 ft | 288 kts | 199° |
| 2026-05-06 18:46 | 51.06640 | 20.17041 | 19655 ft | 288 kts | 199° |
| 2026-05-06 18:46 | 51.04710 | 20.16182 | 19509 ft | 287 kts | 199° |
| 2026-05-06 18:46 | 51.02813 | 20.15337 | 19365 ft | 286 kts | 199° |
| 2026-05-06 18:47 | 51.00899 | 20.14485 | 19218 ft | 286 kts | 199° |
| 2026-05-06 18:47 | 50.99006 | 20.13641 | 19072 ft | 285 kts | 199° |
| 2026-05-06 18:47 | 50.97085 | 20.12781 | 18922 ft | 284 kts | 199° |
| 2026-05-06 18:47 | 50.95196 | 20.11934 | 18775 ft | 283 kts | 199° |
| 2026-05-06 18:48 | 50.93313 | 20.11089 | 18627 ft | 282 kts | 199° |
| 2026-05-06 18:48 | 50.91422 | 20.10238 | 18478 ft | 281 kts | 199° |
| 2026-05-06 18:48 | 50.89536 | 20.09389 | 18331 ft | 281 kts | 199° |
| 2026-05-06 18:48 | 50.87672 | 20.08549 | 18194 ft | 280 kts | 199° |
| 2026-05-06 18:49 | 50.85809 | 20.07709 | 18056 ft | 279 kts | 199° |
| 2026-05-06 18:49 | 50.83940 | 20.06867 | 17916 ft | 278 kts | 199° |
| 2026-05-06 18:49 | 50.82094 | 20.06033 | 17777 ft | 278 kts | 199° |
| 2026-05-06 18:49 | 50.80239 | 20.05195 | 17637 ft | 277 kts | 199° |
| 2026-05-06 18:50 | 50.78363 | 20.04544 | 17437 ft | 281 kts | 192° |
| 2026-05-06 18:50 | 50.76393 | 20.04382 | 17183 ft | 287 kts | 184° |
| 2026-05-06 18:50 | 50.74379 | 20.04411 | 16886 ft | 289 kts | 184° |
| 2026-05-06 18:50 | 50.72388 | 20.04427 | 16598 ft | 291 kts | 184° |
| 2026-05-06 18:51 | 50.70356 | 20.04422 | 16307 ft | 292 kts | 184° |
| 2026-05-06 18:51 | 50.68322 | 20.04406 | 16017 ft | 292 kts | 184° |
| 2026-05-06 18:51 | 50.66329 | 20.04384 | 15736 ft | 289 kts | 184° |
| 2026-05-06 18:51 | 50.64340 | 20.04364 | 15438 ft | 282 kts | 184° |
| 2026-05-06 18:52 | 50.62399 | 20.04345 | 15142 ft | 279 kts | 184° |
| 2026-05-06 18:52 | 50.60484 | 20.04330 | 14848 ft | 277 kts | 184° |
| 2026-05-06 18:52 | 50.58562 | 20.04331 | 14551 ft | 275 kts | 184° |
| 2026-05-06 18:52 | 50.56664 | 20.04320 | 14254 ft | 273 kts | 184° |
| 2026-05-06 18:53 | 50.54777 | 20.04302 | 13958 ft | 272 kts | 184° |
| 2026-05-06 18:53 | 50.52869 | 20.04281 | 13631 ft | 272 kts | 184° |
| 2026-05-06 18:53 | 50.50979 | 20.04256 | 13250 ft | 273 kts | 184° |
| 2026-05-06 18:53 | 50.49097 | 20.04225 | 12874 ft | 273 kts | 184° |
| 2026-05-06 18:54 | 50.47210 | 20.04183 | 12500 ft | 271 kts | 184° |
| 2026-05-06 18:54 | 50.45341 | 20.04043 | 12139 ft | 269 kts | 187° |
| 2026-05-06 18:54 | 50.43496 | 20.03831 | 11763 ft | 267 kts | 187° |
| 2026-05-06 18:54 | 50.41651 | 20.03613 | 11364 ft | 266 kts | 186° |
| 2026-05-06 18:55 | 50.39799 | 20.03694 | 10978 ft | 268 kts | 168° |
| 2026-05-06 18:55 | 50.38213 | 20.05190 | 10617 ft | 274 kts | 142° |
| 2026-05-06 18:55 | 50.36854 | 20.07294 | 10245 ft | 274 kts | 137° |
| 2026-05-06 18:55 | 50.35618 | 20.09581 | 9876 ft | 274 kts | 132° |
| 2026-05-06 18:56 | 50.34515 | 20.11955 | 9502 ft | 273 kts | 130° |
| 2026-05-06 18:56 | 50.33408 | 20.14382 | 9112 ft | 272 kts | 130° |
| 2026-05-06 18:56 | 50.32321 | 20.16764 | 8732 ft | 271 kts | 131° |
| 2026-05-06 18:56 | 50.31150 | 20.19073 | 8363 ft | 269 kts | 134° |
| 2026-05-06 18:57 | 50.29970 | 20.21316 | 7983 ft | 269 kts | 134° |
| 2026-05-06 18:57 | 50.28780 | 20.23576 | 7603 ft | 269 kts | 134° |
| 2026-05-06 18:57 | 50.27592 | 20.25829 | 7226 ft | 269 kts | 134° |
| 2026-05-06 18:57 | 50.26413 | 20.28072 | 6854 ft | 269 kts | 134° |
| 2026-05-06 18:58 | 50.25234 | 20.30329 | 6483 ft | 269 kts | 134° |
| 2026-05-06 18:58 | 50.23959 | 20.32339 | 6112 ft | 246 kts | 152° |
| 2026-05-06 18:58 | 50.22356 | 20.32888 | 5722 ft | 241 kts | 189° |
| 2026-05-06 18:58 | 50.20873 | 20.31719 | 5395 ft | 246 kts | 225° |
| 2026-05-06 18:59 | 50.19899 | 20.29529 | 5109 ft | 249 kts | 235° |
| 2026-05-06 18:59 | 50.18914 | 20.27311 | 4820 ft | 248 kts | 232° |
| 2026-05-06 18:59 | 50.17928 | 20.25229 | 4628 ft | 235 kts | 232° |
| 2026-05-06 18:59 | 50.16955 | 20.23228 | 4371 ft | 227 kts | 230° |
| 2026-05-06 19:00 | 50.16053 | 20.21269 | 4202 ft | 220 kts | 234° |
| 2026-05-06 19:00 | 50.15231 | 20.19271 | 4064 ft | 218 kts | 234° |
| 2026-05-06 19:00 | 50.14371 | 20.17228 | 4041 ft | 232 kts | 235° |
| 2026-05-06 19:00 | 50.13521 | 20.15045 | 4068 ft | 239 kts | 237° |
| 2026-05-06 19:01 | 50.12726 | 20.12751 | 4091 ft | 242 kts | 240° |
| 2026-05-06 19:01 | 50.12097 | 20.10348 | 4084 ft | 238 kts | 248° |
| 2026-05-06 19:01 | 50.11779 | 20.07838 | 4082 ft | 237 kts | 258° |
| 2026-05-06 19:01 | 50.11537 | 20.05310 | 4080 ft | 234 kts | 257° |
| 2026-05-06 19:02 | 50.11255 | 20.02821 | 3983 ft | 236 kts | 255° |
| 2026-05-06 19:02 | 50.10922 | 20.00302 | 3874 ft | 236 kts | 252° |
| 2026-05-06 19:02 | 50.10513 | 19.97800 | 3708 ft | 239 kts | 253° |
| 2026-05-06 19:02 | 50.10109 | 19.95263 | 3501 ft | 242 kts | 253° |
| 2026-05-06 19:03 | 50.09724 | 19.92821 | 3409 ft | 209 kts | 254° |
| 2026-05-06 19:03 | 50.09448 | 19.90818 | 3380 ft | 174 kts | 256° |
| 2026-05-06 19:03 | 50.09267 | 19.89222 | 3288 ft | 121 kts | 256° |
| 2026-05-06 19:03 | 50.09100 | 19.88020 | 2973 ft | 110 kts | 252° |
| 2026-05-06 19:04 | 50.08949 | 19.86938 | 2582 ft | 102 kts | 255° |
| 2026-05-06 19:04 | 50.08782 | 19.85843 | 2127 ft | 104 kts | 256° |
| 2026-05-06 19:04 | 50.08633 | 19.84790 | 1771 ft | 99 kts | 258° |
| 2026-05-06 19:04 | 50.08490 | 19.83708 | 1472 ft | 107 kts | 260° |
| 2026-05-06 19:05 | 50.08321 | 19.82468 | 1240 ft | 123 kts | 261° |
| 2026-05-06 19:05 | 50.08143 | 19.81119 | 1038 ft | 134 kts | 261° |
| 2026-05-06 19:05 | 50.07949 | 19.79743 | 833 ft | 120 kts | 260° |
| 2026-05-06 19:05 | 50.07799 | 19.78640 | 799 ft | 86 kts | 266° |